MZ-0037 weather

Macossa Airport
Macossa, Manica Province, Mozambique

Public forecast

Using degrees Celsius for public forecast. Weather courtesy of forecast.io.

Closest aviation weather report (METAR) to Macossa Airport

Closest report is Chimoio Airport, 81.9 nm (151.7 km) SSW. Retrieved 2020/06/05 13:00 UTC (14 minutes ago):

FQCH 051300Z /////KT 9999 SCT015 23/14 Q1024

Closest aviation forecast (TAF) to Macossa Airport

Closest forecast is Chimoio Airport, 81.9 nm (151.7 km) SSW. Retrieved 2020/06/05 12:00 UTC (1 hour ago):

TAF FQCH 051000Z 0512/0612 16010KT 9999 SCT015 TX23/0513Z TN13/0603Z BECMG 0518/0520 22008KT PROB30 TEMPO 0601/0605 5000 BR FEW010 BECMG 0606/0608 10010KT 9999 BKN015